You are listening to:
KJXN Del/Gnd/Twr/App - Jackson, Michigan, United States

KJXN 251756Z 24010G22KT 10SM FEW045 BKN055 BKN075 27/18 A2991 RMK AO2 SLP123 T02720178 10283 20217 58004

If stream does not start automatically press the play button